Sand Point, Michigan
Current Conditions -  °F | °C
As of 10:55 PM on Tuesday 25 Nov 2014 (Local Time) from KBAX Reporting Station
Overcast Overcast  
Wind Chill: 26°   Ceiling: 2500
Heat Index: 31°   Visibility: 10mi
Dew Point: 25°   Wind: 5mph
Humidity: 77%   Direction: 250°WSW
Pressure: 30.18"   Gusts: NA
Location:  43.8338°N, 83.2671°W
Report Text: KBAX 260355Z AUTO 25004KT 10SM OVC025 M01/M04 A3018 RMK AO2 T10061041
Loading
Personal Weather Stations






























Interactive Weather Map New forecast layout! Learn more

10-Day Weather Forecast

Advertisements
Track Severe Weather on mobile